Archival Weather

Norman Y Mineta San Jose Intl

San Jose, California (KSJC)

Report from: Sunday, January 28, 2024 9:53 PM PST
Current time: Friday, June 14, 2024 6:39 AM PDT

Current weather – Weather history – Daily summaries
Weather forecast

Temperature14.4°C (57.9°F)
Dew point10.6°C (51.1°F)
Winds 3 kts (1.5 m/s, 3.5 mph) South-Southeast (150°)
Visibility10 mi. (16.1 km)
Clouds Scattered clouds 11,000 ft. (3,353 m)
Altimeter30.14 in.Hg (1021 mB)
Relative humidity78 %
Density altitude-132 ft. (-40 m)
Sea-level pressure102.0 kPa (1020 mB, 30.13 in.Hg)
Max temp last 6 hours22.2°C (72.0°F)
Min temp last 6 hours14.4°C (57.9°F)
Remarks Automated weather observing station with precipitation discriminator
Pressure rising more slowly
Flight conditions Visual Meteorological Conditions
Raw dataKSJC 290553Z 15003KT 10SM SCT110 14/11 A3014 RMK AO2 SLP204 T01440106 10222 20144 51008
An error has occurred. This application may no longer respond until reloaded. Reload 🗙